createdAt,value
2019-01-27T00:00:22.373Z,32.63
2019-01-27T00:03:29.724Z,32.80
2019-01-27T00:06:36.843Z,32.80
2019-01-27T00:09:42.665Z,37.63
2019-01-27T00:12:48.718Z,36.87
2019-01-27T00:15:54.477Z,34.23
2019-01-27T00:19:00.320Z,36.30
2019-01-27T00:22:06.677Z,35.67
2019-01-27T00:25:12.528Z,29.80
2019-01-27T00:28:18.395Z,34.33
2019-01-27T00:31:24.148Z,33.20
2019-01-27T00:34:29.905Z,32.60
2019-01-27T00:37:35.661Z,35.37
2019-01-27T00:40:42.614Z,36.80
2019-01-27T00:43:48.370Z,36.77
2019-01-27T00:46:54.132Z,38.43
2019-01-27T00:50:00.010Z,39.70
2019-01-27T00:53:06.156Z,37.27
2019-01-27T00:56:12.016Z,40.13
2019-01-27T00:59:17.768Z,36.43
2019-01-27T01:02:23.576Z,26.90
2019-01-27T01:05:29.522Z,38.57
2019-01-27T01:08:35.276Z,41.47
2019-01-27T01:11:42.249Z,37.53
2019-01-27T01:14:48.036Z,36.57
2019-01-27T01:17:53.800Z,36.87
2019-01-27T01:20:59.655Z,39.00
2019-01-27T01:24:06.230Z,42.83
2019-01-27T01:27:12.106Z,37.43
2019-01-27T01:30:20.606Z,42.60
2019-01-27T01:33:26.485Z,43.50
2019-01-27T01:36:32.237Z,43.27
2019-01-27T01:39:38.077Z,41.90
2019-01-27T01:42:43.931Z,42.93
2019-01-27T01:45:49.682Z,38.23
2019-01-27T01:48:55.429Z,38.37
2019-01-27T01:52:01.182Z,38.70
2019-01-27T01:55:07.045Z,41.13
2019-01-27T01:58:12.896Z,36.43
2019-01-27T02:01:19.152Z,38.73
2019-01-27T02:04:24.907Z,36.57
2019-01-27T02:07:30.659Z,37.87
2019-01-27T02:10:37.498Z,39.33
2019-01-27T02:13:43.245Z,38.97
2019-01-27T02:16:49.083Z,39.63
2019-01-27T02:19:55.054Z,38.97
2019-01-27T02:23:00.808Z,36.90
2019-01-27T02:26:08.538Z,41.43
2019-01-27T02:29:14.380Z,33.97
2019-01-27T02:32:20.220Z,39.00
2019-01-27T02:35:26.194Z,41.23
2019-01-27T02:38:32.225Z,38.00
2019-01-27T02:41:38.103Z,38.80
2019-01-27T02:44:44.047Z,33.13
2019-01-27T02:47:49.904Z,39.83
2019-01-27T02:50:55.855Z,36.70
2019-01-27T02:54:01.699Z,37.30
2019-01-27T02:57:07.730Z,38.47
2019-01-27T03:00:14.200Z,41.07
2019-01-27T03:03:20.143Z,32.90
2019-01-27T03:06:33.260Z,38.90
2019-01-27T03:09:44.160Z,37.87
2019-01-27T03:12:50.020Z,38.33
2019-01-27T03:15:56.123Z,35.77
2019-01-27T03:19:01.945Z,36.00
2019-01-27T03:22:08.407Z,36.63
2019-01-27T03:25:14.478Z,35.30
2019-01-27T03:28:20.309Z,33.03
2019-01-27T03:31:26.156Z,32.43
2019-01-27T03:34:32.119Z,36.07
2019-01-27T03:37:38.160Z,34.40
2019-01-27T03:40:44.079Z,39.43
2019-01-27T03:43:49.990Z,38.30
2019-01-27T03:46:55.970Z,36.17
2019-01-27T03:50:01.924Z,35.40
2019-01-27T03:53:07.953Z,32.37
2019-01-27T03:56:13.929Z,37.87
2019-01-27T03:59:19.802Z,30.67
2019-01-27T04:02:25.658Z,29.93
2019-01-27T04:05:31.620Z,34.07
2019-01-27T04:08:37.469Z,31.50
2019-01-27T04:11:43.402Z,30.13
2019-01-27T04:14:49.252Z,32.30
2019-01-27T04:17:55.305Z,28.70
2019-01-27T04:21:01.271Z,30.57
2019-01-27T04:24:07.219Z,30.23
2019-01-27T04:27:13.076Z,36.23
2019-01-27T04:30:35.088Z,46.30
2019-01-27T04:33:40.922Z,36.20
2019-01-27T04:36:46.774Z,28.60
2019-01-27T04:39:52.702Z,31.87
2019-01-27T04:42:59.025Z,30.40
2019-01-27T04:46:05.052Z,27.10
2019-01-27T04:49:11.062Z,33.77
2019-01-27T04:52:16.960Z,37.40
2019-01-27T04:55:23.017Z,30.67
2019-01-27T04:58:28.862Z,37.00
2019-01-27T05:01:34.807Z,34.60
2019-01-27T05:04:41.725Z,32.17
2019-01-27T05:07:47.648Z,34.93
2019-01-27T05:10:53.553Z,35.53
2019-01-27T05:13:59.410Z,37.23
2019-01-27T05:17:05.452Z,51.53
2019-01-27T05:20:12.209Z,36.97
2019-01-27T05:23:18.053Z,35.43
2019-01-27T05:26:23.962Z,35.50
2019-01-27T05:29:29.836Z,31.00
2019-01-27T05:32:35.783Z,35.50
2019-01-27T05:35:41.751Z,34.30
2019-01-27T05:38:50.422Z,40.13
2019-01-27T05:41:56.272Z,39.07
2019-01-27T05:45:02.154Z,33.83
2019-01-27T05:48:07.996Z,32.40
2019-01-27T05:51:13.928Z,30.67
2019-01-27T05:54:20.257Z,27.70
2019-01-27T05:57:26.258Z,25.13
2019-01-27T06:00:40.685Z,26.03
2019-01-27T06:03:46.557Z,25.50
2019-01-27T06:06:54.121Z,28.73
2019-01-27T06:10:00.009Z,24.23
2019-01-27T06:13:05.947Z,25.73
2019-01-27T06:16:12.005Z,26.07
2019-01-27T06:19:18.203Z,29.37
2019-01-27T06:22:24.186Z,26.27
2019-01-27T06:25:30.173Z,24.27
2019-01-27T06:28:36.033Z,25.80
2019-01-27T06:31:42.112Z,24.33
2019-01-27T06:34:48.035Z,29.40
2019-01-27T06:37:53.996Z,26.90
2019-01-27T06:41:00.204Z,27.17
2019-01-27T06:44:06.246Z,21.93
2019-01-27T06:47:12.192Z,23.43
2019-01-27T06:50:18.424Z,22.30
2019-01-27T06:53:24.473Z,26.93
2019-01-27T06:56:30.459Z,25.17
2019-01-27T06:59:42.655Z,25.93
2019-01-27T07:02:57.209Z,25.80
2019-01-27T07:06:33.792Z,25.03
2019-01-27T07:09:52.109Z,23.77
2019-01-27T07:13:15.478Z,20.97
2019-01-27T07:16:38.857Z,25.53
2019-01-27T07:20:03.597Z,23.10
2019-01-27T07:23:27.267Z,24.03
2019-01-27T07:26:54.862Z,26.27
2019-01-27T07:30:22.416Z,21.60
2019-01-27T07:33:45.750Z,22.33
2019-01-27T07:37:08.948Z,22.90
2019-01-27T07:40:42.547Z,22.67
2019-01-27T07:44:16.320Z,31.63
2019-01-27T07:47:39.547Z,42.23
2019-01-27T07:51:02.059Z,27.57
2019-01-27T07:54:33.169Z,27.20
2019-01-27T07:58:00.832Z,25.13
2019-01-27T08:01:22.950Z,31.80
2019-01-27T08:04:39.776Z,26.60
2019-01-27T08:07:58.044Z,26.13
2019-01-27T08:11:21.431Z,30.60
2019-01-27T08:14:41.538Z,25.37
2019-01-27T08:18:00.541Z,29.73
2019-01-27T08:21:22.695Z,28.90
2019-01-27T08:24:56.249Z,27.07
2019-01-27T08:28:18.544Z,28.47
2019-01-27T08:31:45.632Z,32.73
2019-01-27T08:35:11.928Z,28.10
2019-01-27T08:38:39.598Z,25.90
2019-01-27T08:42:13.428Z,30.57
2019-01-27T08:45:35.610Z,34.97
2019-01-27T08:48:41.457Z,28.70
2019-01-27T08:51:47.435Z,34.20
2019-01-27T08:54:53.500Z,30.73
2019-01-27T08:57:59.394Z,31.10
2019-01-27T09:01:24.170Z,45.93
2019-01-27T09:04:48.602Z,28.43
2019-01-27T09:08:22.547Z,31.27
2019-01-27T09:11:46.224Z,27.87
2019-01-27T09:15:09.719Z,28.47
2019-01-27T09:18:33.024Z,24.93
2019-01-27T09:21:52.421Z,25.03
2019-01-27T09:25:12.240Z,27.17
2019-01-27T09:28:35.527Z,25.23
2019-01-27T09:31:58.825Z,28.07
2019-01-27T09:35:22.610Z,29.03
2019-01-27T09:39:05.392Z,26.07
2019-01-27T09:42:28.911Z,24.13
2019-01-27T09:46:05.076Z,27.90
2019-01-27T09:49:12.768Z,26.80
2019-01-27T09:52:38.159Z,29.77
2019-01-27T09:56:08.992Z,28.17
2019-01-27T09:59:42.457Z,38.87
2019-01-27T10:03:22.729Z,38.63
2019-01-27T10:06:46.712Z,40.07
2019-01-27T10:10:20.400Z,26.60
2019-01-27T10:13:45.056Z,29.53
2019-01-27T10:17:08.317Z,34.43
2019-01-27T10:20:33.085Z,37.63
2019-01-27T10:24:05.101Z,44.07
2019-01-27T10:27:19.415Z,48.37
2019-01-27T10:30:50.774Z,56.57
2019-01-27T10:34:13.457Z,31.03
2019-01-27T10:37:47.556Z,45.67
2019-01-27T10:41:08.663Z,33.77
2019-01-27T10:44:41.346Z,30.33
2019-01-27T10:48:08.746Z,22.53
2019-01-27T10:51:36.524Z,37.90
2019-01-27T10:55:05.002Z,27.47
2019-01-27T10:58:28.298Z,26.23
2019-01-27T11:01:55.000Z,29.63
2019-01-27T11:05:35.160Z,54.27
2019-01-27T11:08:58.737Z,25.57
2019-01-27T11:12:28.068Z,36.43
2019-01-27T11:15:55.865Z,22.07
2019-01-27T11:19:15.580Z,33.07
2019-01-27T11:22:43.760Z,45.60
2019-01-27T11:26:07.192Z,30.70
2019-01-27T11:29:29.266Z,40.27
2019-01-27T11:32:52.861Z,132.43
2019-01-27T11:36:23.578Z,77.13
2019-01-27T11:39:48.252Z,169.87
2019-01-27T11:43:15.998Z,40.60
2019-01-27T11:46:39.553Z,25.67
2019-01-27T11:49:49.796Z,20.97
2019-01-27T11:53:01.731Z,19.63
2019-01-27T11:56:07.670Z,18.93
2019-01-27T11:59:13.760Z,21.37
2019-01-27T12:02:19.618Z,18.53
2019-01-27T12:05:25.600Z,22.67
2019-01-27T12:08:31.489Z,20.37
2019-01-27T12:11:37.501Z,26.63
2019-01-27T12:14:43.502Z,22.77
2019-01-27T12:17:49.495Z,20.23
2019-01-27T12:20:55.611Z,19.80
2019-01-27T12:24:01.505Z,17.27
2019-01-27T12:27:07.574Z,14.67
2019-01-27T12:30:18.335Z,15.17
2019-01-27T12:33:24.264Z,17.13
2019-01-27T12:36:30.198Z,18.07
2019-01-27T12:39:36.082Z,16.87
2019-01-27T12:42:42.147Z,21.93
2019-01-27T12:45:48.127Z,21.10
2019-01-27T12:48:54.090Z,22.70
2019-01-27T12:51:59.971Z,20.80
2019-01-27T12:55:06.457Z,22.40
2019-01-27T12:58:12.423Z,21.50
2019-01-27T13:01:18.544Z,19.80
2019-01-27T13:04:24.435Z,21.27
2019-01-27T13:07:30.400Z,23.90
2019-01-27T13:10:36.360Z,21.63
2019-01-27T13:13:42.294Z,22.07
2019-01-27T13:16:48.249Z,24.27
2019-01-27T13:19:54.159Z,52.77
2019-01-27T13:23:00.124Z,47.63
2019-01-27T13:26:06.225Z,37.07
2019-01-27T13:29:12.127Z,24.90
2019-01-27T13:32:17.988Z,24.80
2019-01-27T13:35:24.576Z,20.17
2019-01-27T13:38:31.620Z,21.07
2019-01-27T13:41:38.333Z,20.00
2019-01-27T13:44:44.873Z,19.63
2019-01-27T13:47:50.823Z,22.43
2019-01-27T13:50:56.771Z,27.20
2019-01-27T13:54:02.706Z,20.80
2019-01-27T13:57:08.652Z,21.57
2019-01-27T14:00:20.950Z,24.27
2019-01-27T14:03:26.933Z,21.33
2019-01-27T14:06:32.788Z,21.10
2019-01-27T14:09:38.651Z,24.10
2019-01-27T14:12:44.557Z,22.97
2019-01-27T14:15:50.440Z,33.37
2019-01-27T14:18:57.319Z,28.70
2019-01-27T14:22:03.368Z,24.93
2019-01-27T14:25:10.257Z,22.90
2019-01-27T14:28:16.107Z,21.50
2019-01-27T14:31:21.974Z,27.80
2019-01-27T14:34:27.818Z,28.50
2019-01-27T14:37:33.792Z,40.70
2019-01-27T14:40:39.652Z,28.03
2019-01-27T14:43:45.525Z,28.23
2019-01-27T14:46:51.390Z,34.30
2019-01-27T14:49:57.414Z,42.73
2019-01-27T14:53:03.343Z,58.70
2019-01-27T14:56:09.304Z,30.70
2019-01-27T14:59:15.903Z,76.57
2019-01-27T15:02:21.744Z,54.80
2019-01-27T15:05:27.706Z,47.57
2019-01-27T15:08:33.585Z,28.83
2019-01-27T15:11:45.710Z,35.57
2019-01-27T15:14:51.622Z,37.17
2019-01-27T15:18:00.514Z,38.57
2019-01-27T15:21:13.646Z,35.57
2019-01-27T15:24:19.533Z,37.70
2019-01-27T15:27:25.396Z,37.90
2019-01-27T15:30:32.758Z,38.80
2019-01-27T15:33:38.646Z,47.93
2019-01-27T15:36:44.522Z,43.37
2019-01-27T15:39:50.364Z,45.53
2019-01-27T15:42:56.368Z,47.53
2019-01-27T15:46:02.379Z,57.00
2019-01-27T15:49:08.445Z,54.20
2019-01-27T15:52:14.272Z,49.70
2019-01-27T15:55:20.946Z,57.13
2019-01-27T15:58:26.805Z,74.77
2019-01-27T16:01:32.779Z,62.57
2019-01-27T16:04:39.768Z,65.97
2019-01-27T16:07:45.788Z,77.67
2019-01-27T16:10:51.770Z,55.03
2019-01-27T16:13:57.789Z,74.50
2019-01-27T16:17:03.836Z,69.43
2019-01-27T16:20:10.893Z,77.47
2019-01-27T16:23:34.867Z,72.63
2019-01-27T16:26:41.062Z,100.57
2019-01-27T16:30:05.828Z,126.67
2019-01-27T16:33:15.187Z,114.90
2019-01-27T16:36:21.235Z,140.70
2019-01-27T16:39:27.475Z,140.87
2019-01-27T16:42:33.341Z,114.33
2019-01-27T16:45:39.200Z,92.57
2019-01-27T16:48:45.149Z,98.50
2019-01-27T16:51:51.204Z,78.70
2019-01-27T16:54:57.144Z,92.03
2019-01-27T16:58:02.998Z,63.47
2019-01-27T17:01:09.056Z,54.67
2019-01-27T17:04:14.962Z,69.47
2019-01-27T17:07:20.851Z,75.93
2019-01-27T17:10:27.260Z,82.90
2019-01-27T17:13:33.140Z,84.80
2019-01-27T17:16:39.345Z,85.50
2019-01-27T17:19:45.273Z,88.77
2019-01-27T17:22:51.280Z,98.67
2019-01-27T17:25:58.379Z,122.73
2019-01-27T17:29:04.663Z,124.63
2019-01-27T17:32:10.605Z,127.17
2019-01-27T17:35:17.357Z,131.70
2019-01-27T17:38:23.354Z,136.47
2019-01-27T17:41:29.221Z,157.33
2019-01-27T17:44:35.063Z,171.63
2019-01-27T17:47:41.129Z,181.20
2019-01-27T17:50:47.097Z,179.63
2019-01-27T17:54:00.418Z,195.70
2019-01-27T17:57:17.403Z,200.33
2019-01-27T18:00:42.183Z,234.33
2019-01-27T18:04:10.257Z,186.77
2019-01-27T18:07:25.334Z,204.63
2019-01-27T18:10:36.366Z,221.63
2019-01-27T18:14:04.308Z,203.80
2019-01-27T18:17:10.221Z,167.70
2019-01-27T18:20:16.844Z,156.13
2019-01-27T18:23:22.865Z,153.13
2019-01-27T18:26:28.820Z,137.40
2019-01-27T18:29:34.688Z,133.67
2019-01-27T18:32:40.530Z,139.47
2019-01-27T18:35:46.552Z,130.47
2019-01-27T18:38:52.655Z,129.73
2019-01-27T18:41:58.622Z,131.77
2019-01-27T18:45:05.520Z,149.23
2019-01-27T18:48:11.458Z,132.17
2019-01-27T18:51:17.431Z,130.60
2019-01-27T18:54:40.848Z,140.07
2019-01-27T18:58:08.355Z,140.93
2019-01-27T19:01:31.906Z,139.27
2019-01-27T19:04:56.648Z,155.00
2019-01-27T19:08:15.533Z,158.07
2019-01-27T19:11:40.475Z,160.43
2019-01-27T19:14:55.324Z,147.53
2019-01-27T19:18:19.261Z,156.40
2019-01-27T19:21:53.023Z,150.33
2019-01-27T19:25:03.291Z,154.53
2019-01-27T19:28:34.135Z,179.57
2019-01-27T19:32:04.570Z,192.80
2019-01-27T19:35:17.802Z,188.43
2019-01-27T19:38:39.498Z,180.23
2019-01-27T19:42:01.574Z,172.77
2019-01-27T19:45:30.143Z,174.53
2019-01-27T19:49:06.927Z,174.60
2019-01-27T19:52:30.271Z,166.40
2019-01-27T19:56:00.859Z,174.53
2019-01-27T19:59:25.795Z,161.70
2019-01-27T20:02:49.223Z,156.37
2019-01-27T20:06:09.224Z,123.67
2019-01-27T20:09:32.867Z,105.10
2019-01-27T20:13:08.335Z,119.80
2019-01-27T20:16:42.085Z,128.07
2019-01-27T20:20:10.826Z,110.93
2019-01-27T20:23:41.618Z,119.83
2019-01-27T20:27:15.368Z,124.30
2019-01-27T20:30:55.567Z,116.53
2019-01-27T20:34:13.063Z,114.83
2019-01-27T20:37:37.720Z,109.00
2019-01-27T20:41:02.371Z,102.00
2019-01-27T20:44:23.597Z,140.17
2019-01-27T20:47:43.086Z,91.40
2019-01-27T20:51:06.631Z,74.67
2019-01-27T20:54:34.402Z,67.93
2019-01-27T20:57:59.216Z,61.50
2019-01-27T21:01:25.075Z,57.17
2019-01-27T21:04:41.027Z,62.33
2019-01-27T21:07:54.697Z,55.07
2019-01-27T21:11:25.645Z,51.87
2019-01-27T21:14:40.222Z,55.10
2019-01-27T21:17:55.805Z,56.50
2019-01-27T21:21:01.978Z,51.27
2019-01-27T21:24:08.070Z,57.00
2019-01-27T21:27:14.051Z,63.23
2019-01-27T21:30:20.177Z,48.40
2019-01-27T21:33:26.126Z,45.87
2019-01-27T21:36:31.983Z,47.17
2019-01-27T21:39:37.910Z,48.57
2019-01-27T21:42:47.515Z,62.97
2019-01-27T21:45:51.621Z,61.53
2019-01-27T21:48:57.490Z,47.77
2019-01-27T21:52:03.422Z,53.10
2019-01-27T21:55:09.574Z,52.00
2019-01-27T21:58:15.399Z,59.63
2019-01-27T22:01:25.473Z,60.83
2019-01-27T22:04:28.898Z,62.97
2019-01-27T22:07:34.911Z,68.27
2019-01-27T22:10:40.748Z,68.50
2019-01-27T22:13:46.606Z,79.00
2019-01-27T22:16:52.448Z,73.63
2019-01-27T22:19:58.321Z,81.97
2019-01-27T22:23:05.998Z,79.93
2019-01-27T22:26:12.165Z,77.90
2019-01-27T22:29:18.016Z,89.40
2019-01-27T22:32:23.976Z,80.03
2019-01-27T22:35:30.452Z,86.60
2019-01-27T22:38:36.390Z,93.77
2019-01-27T22:41:42.350Z,70.57
2019-01-27T22:44:48.265Z,71.30
2019-01-27T22:47:54.099Z,101.77
2019-01-27T22:51:00.025Z,68.20
2019-01-27T22:54:06.031Z,72.13
2019-01-27T22:57:12.074Z,64.50
2019-01-27T23:00:49.092Z,68.60
2019-01-27T23:03:56.424Z,74.20
2019-01-27T23:07:02.360Z,70.07
2019-01-27T23:10:08.435Z,70.07
2019-01-27T23:13:14.380Z,72.37
2019-01-27T23:16:20.322Z,74.77
2019-01-27T23:19:27.881Z,72.63
2019-01-27T23:22:33.904Z,71.13
2019-01-27T23:25:39.896Z,69.03
2019-01-27T23:28:45.754Z,70.57
2019-01-27T23:31:51.609Z,62.27
2019-01-27T23:34:57.571Z,59.30
2019-01-27T23:38:03.526Z,65.77
2019-01-27T23:41:09.497Z,60.87
2019-01-27T23:44:15.448Z,83.03
2019-01-27T23:47:21.408Z,67.83
2019-01-27T23:50:27.266Z,61.73
2019-01-27T23:53:33.229Z,63.80
2019-01-27T23:56:39.097Z,69.77
2019-01-27T23:59:45.937Z,72.00
